This is the latest recevied weather packets stored in our database for station/object OM8AGG-10. If no packets are shown the sender has not sent any weather packets the latest 10 day(s).
| Time | Temp. | Humidity | Pressure | Rain* | Wind** | Luminosity | Snow |
|---|---|---|---|---|---|---|---|
| 1788198149 | 23.89° C | 42% | 1014.5 hPa | - | - | - | - |
| 1788197249 | 24.44° C | 43% | 1014.5 hPa | - | - | - | - |
| 1788196349 | 25° C | 43% | 1014.4 hPa | - | - | - | - |
| 1788195449 | 26.67° C | 38% | 1014.4 hPa | - | - | - | - |
| 1788194548 | 28.33° C | 36% | 1014.6 hPa | - | - | - | - |
| 1788193648 | 30° C | 28% | 1014.6 hPa | - | - | - | - |
| 1788192748 | 31.67° C | 24% | 1014.4 hPa | - | - | - | - |
| 1788190048 | 33.89° C | 20% | 1014.6 hPa | - | - | - | - |
| 1788189148 | 34.44° C | 20% | 1014.8 hPa | - | - | - | - |
| 1788188248 | 34.44° C | 21% | 1014.8 hPa | - | - | - | - |
| 1788187347 | 33.89° C | 21% | 1015 hPa | - | - | - | - |
| 1788186447 | 35° C | 21% | 1015 hPa | - | - | - | - |
| 1788185547 | 35.56° C | 20% | 1015.2 hPa | - | - | - | - |
| 1788184647 | 34.44° C | 20% | 1015.4 hPa | - | - | - | - |
| 1788183747 | 35° C | 21% | 1015.7 hPa | - | - | - | - |
| 1788182847 | 35° C | 24% | 1015.8 hPa | - | - | - | - |
| 1788181946 | 35° C | 21% | 1016 hPa | - | - | - | - |
| 1788181046 | 34.44° C | 21% | 1016.2 hPa | - | - | - | - |
| 1788180146 | 33.89° C | 22% | 1016.2 hPa | - | - | - | - |
| 1788179246 | 34.44° C | 23% | 1016.2 hPa | - | - | - | - |
| 1788178346 | 33.89° C | 24% | 1016.5 hPa | - | - | - | - |
| 1788177446 | 33.33° C | 25% | 1016.5 hPa | - | - | - | - |
| 1788176546 | 33.89° C | 24% | 1016.7 hPa | - | - | - | - |
| 1788175645 | 33.33° C | 25% | 1016.9 hPa | - | - | - | - |
| 1788174745 | 33.33° C | 26% | 1017.1 hPa | - | - | - | - |
* Rain since midnight (hover to see other rain measurements)
** Current wind speed in m/s (hover to see current wind gust speed)